This is the latest recevied weather packets stored in our database for station/object DL8TF-13. If no packets are shown the sender has not sent any weather packets the latest 10 day(s).
| Time | Temp. | Humidity | Pressure | Rain* | Wind** | Luminosity | Snow |
|---|---|---|---|---|---|---|---|
| 1777473193 | 32.22° C | 11% | 988 hPa | - | - | - | - |
| 1777472593 | 32.22° C | 12% | 989 hPa | - | - | - | - |
| 1777471993 | 31.67° C | 12% | 989 hPa | - | - | - | - |
| 1777469593 | 37.78° C | 7% | 988 hPa | - | - | - | - |
| 1777468993 | 37.22° C | 8% | 989 hPa | - | - | - | - |
| 1777468393 | 35° C | 9% | 989 hPa | - | - | - | - |
| 1777467793 | 36.11° C | 9% | 989 hPa | - | - | - | - |
| 1777467193 | 36.11° C | 10% | 989 hPa | - | - | - | - |
| 1777465993 | 35.56° C | 11% | 989 hPa | - | - | - | - |
| 1777465393 | 34.44° C | 11% | 989 hPa | - | - | - | - |
| 1777464192 | 33.89° C | 13% | 989 hPa | - | - | - | - |
| 1777462392 | 30° C | 14% | 989 hPa | - | - | - | - |
| 1777461792 | 26.67° C | 19% | 989 hPa | - | - | - | - |
| 1777461192 | 21.11° C | 26% | 989 hPa | - | - | - | - |
| 1777460592 | 20.56° C | 27% | 989 hPa | - | - | - | - |
| 1777459992 | 20° C | 27% | 989 hPa | - | - | - | - |
| 1777458792 | 18.89° C | 31% | 989 hPa | - | - | - | - |
| 1777458192 | 18.89° C | 31% | 989 hPa | - | - | - | - |
| 1777457592 | 18.33° C | 31% | 989 hPa | - | - | - | - |
| 1777456992 | 17.78° C | 31% | 989 hPa | - | - | - | - |
| 1777456392 | 17.78° C | 33% | 989 hPa | - | - | - | - |
| 1777455792 | 17.78° C | 33% | 989 hPa | - | - | - | - |
| 1777455191 | 17.78° C | 33% | 989 hPa | - | - | - | - |
| 1777454591 | 17.22° C | 33% | 989 hPa | - | - | - | - |
| 1777453991 | 17.22° C | 34% | 989 hPa | - | - | - | - |
* Rain since midnight (hover to see other rain measurements)
** Current wind speed in m/s (hover to see current wind gust speed)